Allenton, Michigan
Current Conditions -  °F | °C
As of 3:53 PM on Thursday 23 Oct 2014 (Local Time) from KD95 Reporting Station
Clear Clear  
Wind Chill: 12°   Ceiling: Unl
Heat Index: 12°   Visibility: 10mi
Dew Point:   Wind: 5mph
Humidity: 53%   Direction: 310°NW
Pressure: 30.15"   Gusts: NA
Location:  42.92°N, 82.95°W
Report Text: KD95 231953Z AUTO 31004KT 10SM CLR 12/03 A3015 RMK AO2 T01220028
Loading
Personal Weather Stations






























Interactive Weather Map
Tropical Storm Tracking
New forecast layout! Learn more

10-Day Weather Forecast

Advertisements
Track Severe Weather on mobile